createdAt,value
2018-04-24T16:45:58.860Z,60.13
2018-04-24T16:48:29.210Z,57.73
2018-04-24T16:50:56.716Z,59.75
2018-04-24T16:53:24.243Z,59.20
2018-04-24T16:55:51.746Z,60.29
2018-04-24T16:58:19.287Z,59.29
2018-04-24T17:00:46.878Z,60.31
2018-04-24T17:03:14.321Z,60.80
2018-04-24T17:05:41.876Z,61.48
2018-04-24T17:08:09.423Z,62.27
2018-04-24T17:10:36.931Z,61.75
2018-04-24T17:13:04.496Z,61.75
2018-04-24T17:15:31.984Z,61.74
2018-04-24T17:17:59.513Z,61.58
2018-04-24T17:20:27.034Z,60.76
2018-04-24T17:22:54.572Z,58.00
2018-04-24T17:25:22.142Z,59.09
2018-04-24T17:27:49.701Z,59.24
2018-04-24T17:30:17.208Z,61.13
2018-04-24T17:32:44.762Z,61.67
2018-04-24T17:35:12.340Z,60.88
2018-04-24T17:37:39.866Z,61.45
2018-04-24T17:40:07.413Z,60.54
2018-04-24T17:42:34.931Z,61.14
2018-04-24T17:45:02.430Z,60.63
2018-04-24T17:47:29.973Z,61.25
2018-04-24T17:49:57.582Z,61.59
2018-04-24T17:52:25.025Z,62.37
2018-04-24T17:54:52.558Z,63.19
2018-04-24T17:57:20.075Z,62.64
2018-04-24T17:59:47.607Z,62.77
2018-04-24T18:02:15.129Z,62.91
2018-04-24T18:04:42.687Z,63.49
2018-04-24T18:07:10.731Z,64.80
2018-04-24T18:09:38.302Z,62.87
2018-04-24T18:12:05.849Z,64.46
2018-04-24T18:14:36.918Z,63.72
2018-04-24T18:17:05.285Z,63.72
2018-04-24T18:19:32.835Z,64.13
2018-04-24T18:22:00.334Z,64.00
2018-04-24T18:24:27.834Z,63.83
2018-04-24T18:26:55.545Z,64.26
2018-04-24T18:29:23.076Z,65.44
2018-04-24T18:31:50.569Z,64.61
2018-04-24T18:34:18.045Z,65.64
2018-04-24T18:36:45.504Z,66.80
2018-04-24T18:39:12.989Z,67.18
2018-04-24T18:41:40.501Z,67.41
2018-04-24T18:44:08.009Z,68.13
2018-04-24T18:46:35.470Z,68.81
2018-04-24T18:49:02.962Z,68.57
2018-04-24T18:51:30.426Z,68.36
2018-04-24T18:53:57.904Z,68.23
2018-04-24T18:56:25.378Z,68.49
2018-04-24T18:58:52.862Z,69.20
2018-04-24T19:01:20.368Z,69.41
2018-04-24T19:03:47.846Z,69.65
2018-04-24T19:06:15.306Z,70.07
2018-04-24T19:08:42.793Z,69.80
2018-04-24T19:11:10.256Z,70.90
2018-04-24T19:13:37.741Z,70.11
2018-04-24T19:16:05.209Z,71.38
2018-04-24T19:18:38.247Z,71.30
2018-04-24T19:21:05.706Z,70.26
2018-04-24T19:23:33.270Z,70.54
2018-04-24T19:26:00.668Z,70.63
2018-04-24T19:28:28.151Z,71.01
2018-04-24T19:30:55.650Z,70.77
2018-04-24T19:33:23.109Z,70.69
2018-04-24T19:35:50.598Z,71.60
2018-04-24T19:38:18.053Z,71.97
2018-04-24T19:40:51.213Z,72.26
2018-04-24T19:43:18.678Z,72.58
2018-04-24T19:45:46.163Z,72.55
2018-04-24T19:48:19.267Z,72.70
2018-04-24T19:50:46.823Z,73.14
2018-04-24T19:53:14.297Z,74.02
2018-04-24T19:55:41.826Z,74.28
2018-04-24T19:58:09.370Z,73.76
2018-04-24T20:00:36.850Z,74.16
2018-04-24T20:03:04.313Z,73.96
2018-04-24T20:05:31.836Z,75.32
2018-04-24T20:07:59.297Z,75.34
2018-04-24T20:10:26.841Z,74.74
2018-04-24T20:12:54.391Z,74.36
2018-04-24T20:15:21.869Z,74.75
2018-04-24T20:17:49.341Z,74.00
2018-04-24T20:20:16.833Z,75.04
2018-04-24T20:22:44.403Z,75.42
2018-04-24T20:25:11.887Z,75.95
2018-04-24T20:27:39.354Z,76.48
2018-04-24T20:30:06.838Z,76.19
2018-04-24T20:32:34.295Z,76.63
2018-04-24T20:35:01.766Z,76.11
2018-04-24T20:37:29.265Z,75.56
2018-04-24T20:39:56.748Z,75.38
2018-04-24T20:42:24.210Z,75.78
2018-04-24T20:44:51.698Z,75.67
2018-04-24T20:47:19.175Z,76.06
2018-04-24T20:49:46.628Z,75.39
2018-04-24T20:52:14.110Z,75.23
2018-04-24T20:54:41.572Z,76.36
2018-04-24T20:57:09.054Z,76.06
2018-04-24T20:59:36.537Z,76.13
2018-04-24T21:02:04.014Z,76.11
2018-04-24T21:04:31.466Z,76.53
2018-04-24T21:06:58.960Z,76.97
2018-04-24T21:09:26.439Z,77.29
2018-04-24T21:11:53.909Z,77.20
2018-04-24T21:14:21.377Z,77.67
2018-04-24T21:16:48.859Z,77.60
2018-04-24T21:19:16.331Z,78.84
2018-04-24T21:21:46.939Z,79.49
2018-04-24T21:24:14.393Z,79.56
2018-04-24T21:26:41.871Z,79.76
2018-04-24T21:29:09.443Z,80.09
2018-04-24T21:31:36.925Z,80.38
2018-04-24T21:34:04.377Z,80.62
2018-04-24T21:36:31.857Z,80.45
2018-04-24T21:38:59.317Z,79.60
2018-04-24T21:41:26.810Z,77.76
2018-04-24T21:43:54.276Z,76.30
2018-04-24T21:46:21.785Z,75.57
2018-04-24T21:48:49.250Z,75.47
2018-04-24T21:51:16.726Z,75.86
2018-04-24T21:53:44.189Z,76.45
2018-04-24T21:56:11.679Z,76.52
2018-04-24T21:58:39.139Z,75.97
2018-04-24T22:01:06.634Z,76.15
2018-04-24T22:03:34.090Z,76.63
2018-04-24T22:06:01.584Z,76.40
2018-04-24T22:08:29.044Z,76.32
2018-04-24T22:10:56.509Z,76.74
2018-04-24T22:13:23.989Z,77.69
2018-04-24T22:15:51.458Z,78.28
2018-04-24T22:18:18.945Z,78.40
2018-04-24T22:20:46.411Z,78.30
2018-04-24T22:23:13.914Z,77.81
2018-04-24T22:25:41.378Z,77.49
2018-04-24T22:28:08.862Z,77.84
2018-04-24T22:30:36.332Z,77.61
2018-04-24T22:33:03.940Z,77.22
2018-04-24T22:35:31.382Z,77.28
2018-04-24T22:37:58.865Z,77.56
2018-04-24T22:40:26.327Z,77.47
2018-04-24T22:42:53.810Z,77.28
2018-04-24T22:45:21.266Z,77.81
2018-04-24T22:47:48.749Z,77.28
2018-04-24T22:50:16.205Z,77.30
2018-04-24T22:52:44.053Z,76.57
2018-04-24T22:55:11.501Z,76.33
2018-04-24T22:57:38.980Z,76.27
2018-04-24T23:00:06.441Z,76.33
2018-04-24T23:02:33.922Z,75.95
2018-04-24T23:05:01.382Z,75.83
2018-04-24T23:07:28.873Z,75.28
2018-04-24T23:09:56.212Z,75.08
2018-04-24T23:12:35.526Z,75.34
2018-04-24T23:15:14.865Z,76.52
2018-04-24T23:17:54.179Z,75.74
2018-04-24T23:20:21.111Z,75.59
2018-04-24T23:22:48.593Z,75.43
2018-04-24T23:25:16.051Z,75.42
2018-04-24T23:27:43.533Z,76.37
2018-04-24T23:30:10.989Z,76.78
2018-04-24T23:32:38.475Z,76.16
2018-04-24T23:35:05.937Z,75.36
2018-04-24T23:37:33.389Z,74.20
2018-04-24T23:40:00.881Z,74.42
2018-04-24T23:42:28.351Z,74.38
2018-04-24T23:44:55.834Z,75.31
2018-04-24T23:47:23.298Z,75.66
2018-04-24T23:49:50.788Z,76.04
2018-04-24T23:52:18.248Z,76.45
2018-04-24T23:54:45.770Z,76.80
2018-04-24T23:57:13.230Z,77.41
2018-04-24T23:59:40.718Z,76.91
